WetterOnline ( http://www.wetteronline.de )

Wetter aktuell Frankenberg

Aktuelles Wetter: Neu-Ulrichstein (350m)

6-stündlich | Neueste Meldungen
Ortszeit Temperatur Wetter
Di, 28.03. 20:00 15.5° C wolkenlos
Di, 28.03. 14:00 16.6° C leicht bewölkt
Di, 28.03. 8:00 5.8° C wolkenlos
Di, 28.03. 2:00 9.8° C wolkenlos
Ortszeit Temperatur Wetter
Di, 28.03. 23:00 13.1° C leicht bewölkt
Di, 28.03. 22:30 14.2° C leicht bewölkt
Di, 28.03. 22:00 14.9° C bedeckt
Di, 28.03. 21:30 14.9° C bedeckt
Di, 28.03. 21:00 14.8° C bewölkt
Di, 28.03. 20:30 15.0° C leicht bewölkt
Ortszeit Relative Feuchte Sichtweite
Di, 28.03. 20:00 49% 55 km
Di, 28.03. 14:00 43% 17 km
Di, 28.03. 8:00 55% 45 km
Di, 28.03. 2:00 36% 60 km
Ortszeit Relative Feuchte Sichtweite
Di, 28.03. 23:00 57% 45 km
Di, 28.03. 22:30 53% 50 km
Di, 28.03. 22:00 52% 55 km
Di, 28.03. 21:30 51% 55 km
Di, 28.03. 21:00 52% 50 km
Di, 28.03. 20:30 50% 50 km
Ortszeit Niederschlagsmenge Niederschlagsart
Di, 28.03. 20:00 0,0 l/m2 in 12 Std. -
Di, 28.03. 14:00 0,0 l/m2 in 6 Std. -
Di, 28.03. 8:00 0,0 l/m2 in 12 Std. -
Di, 28.03. 2:00 0,0 l/m2 in 6 Std. -
Ortszeit Niederschlagsmenge Niederschlagsart
Di, 28.03. 23:00 0,0 l/m2 in 1 Std. -
Di, 28.03. 22:30 keine Meldung -
Di, 28.03. 22:00 0,0 l/m2 in 1 Std. -
Di, 28.03. 21:30 keine Meldung -
Di, 28.03. 21:00 0,0 l/m2 in 1 Std. -
Di, 28.03. 20:30 keine Meldung -
Ortszeit Stärke Spitze Richtung
km/h Bft. km/h Grad Sektor
Di, 28.03. 20:00 14 3 43 220° SW
Di, 28.03. 14:00 14 3 29 180° S
Di, 28.03. 8:00 7 2 11 220° SW
Di, 28.03. 2:00 2 1 15 80° O
Ortszeit Stärke Spitze Richtung
km/h Bft. km/h Grad Sektor
Di, 28.03. 23:00 11 2 22 280° W
Di, 28.03. 22:30 11 2 22 280° W
Di, 28.03. 22:00 14 3 22 240° SW
Di, 28.03. 21:30 13 3 15 210° SW
Di, 28.03. 21:00 13 3 19 210° SW
Di, 28.03. 20:30 13 3 19 220° SW
Ortszeit Untergrenze Bedeckung Gattung
total tief tief mittel hoch
Di, 28.03. 20:00 - 0/8 0/8 - - -
Di, 28.03. 14:00 9000 m 6/8 0/8 - - -
Di, 28.03. 8:00 - 0/8 0/8 - - -
Di, 28.03. 2:00 - 0/8 0/8 - - -
Ortszeit Bedeckungsgrad in Achtel und Wolkenuntergrenze
Di, 28.03. 23:00 1(1800m)
Di, 28.03. 22:30 1(1800m) 3(3000m)
Di, 28.03. 22:00 7(1800m) 7(2400m) 8(2700m)
Di, 28.03. 21:30 7(1800m) 7(2100m) 8(2700m)
Di, 28.03. 21:00 5(1800m) 7(2700m)
Di, 28.03. 20:30 1(2100m)
Ortszeit Luftdruck NN (hPa) Tendenz (hPa in 3 Std.)
Di, 28.03. 20:00 1021 + 0,2
Di, 28.03. 14:00 1022 - 0,4
Di, 28.03. 8:00 1023 + 0,3
Di, 28.03. 2:00 1023 + 0,1
Ortszeit Luftdruck NN (hPa) Tendenz (hPa in 3 Std.)
Di, 28.03. 23:00 1022 + 1,3
Di, 28.03. 22:30 1022 + 1,1
Di, 28.03. 22:00 1022 + 1,0
Di, 28.03. 21:30 1021 + 0,8
Di, 28.03. 21:00 1021 + 0,7
Di, 28.03. 20:30 1021 + 0,4
Ortszeit Schneehöhe (cm)
Di, 28.03. 20:00 -
Di, 28.03. 14:00 -
Di, 28.03. 8:00 -
Di, 28.03. 2:00 -
Ortszeit Schneehöhe (cm)
Di, 28.03. 23:00 -
Di, 28.03. 22:30 -
Di, 28.03. 22:00 -
Di, 28.03. 21:30 -
Di, 28.03. 21:00 -
Di, 28.03. 20:30 -
Link zu dieser Seite / Seite empfehlen

Das Wetter in ...